This is the latest recevied weather packets stored in our database for station/object K1FFK-1. If no packets are shown the sender has not sent any weather packets the latest 10 day(s).
| Time | Temp. | Humidity | Pressure | Rain* | Wind** | Luminosity | Snow |
|---|---|---|---|---|---|---|---|
| 1777987893 | 13.33° C | 69% | 1014.5 hPa | 0 mm | - | - | - |
| 1777987294 | 12.78° C | 69% | 1014.2 hPa | 0 mm | - | - | - |
| 1777986839 | 12.78° C | 69% | 1014.2 hPa | 0 mm | - | - | - |
| 1777986694 | 12.78° C | 69% | 1014.2 hPa | 0 mm | - | - | - |
| 1777986093 | 12.22° C | 72% | 1014.2 hPa | 0 mm | - | - | - |
| 1777985494 | 12.22° C | 72% | 1014.2 hPa | 0 mm | - | - | - |
| 1777984894 | 12.22° C | 72% | 1013.8 hPa | 0 mm | - | - | - |
| 1777984294 | 12.22° C | 72% | 1013.8 hPa | 0 mm | - | - | - |
| 1777983693 | 12.22° C | 72% | 1013.9 hPa | 0 mm | - | - | - |
| 1777983093 | 12.22° C | 72% | 1013.8 hPa | 0 mm | - | - | - |
| 1777982494 | 11.67° C | 73% | 1013.7 hPa | 0 mm | - | - | - |
| 1777981893 | 11.11° C | 73% | 1013.8 hPa | 0 mm | - | - | - |
| 1777981295 | 10.56° C | 75% | 1013.5 hPa | 0 mm | - | - | - |
| 1777980693 | 10.56° C | 75% | 1013.5 hPa | 0 mm | - | - | - |
| 1777980094 | 10° C | 77% | 1013.4 hPa | 0 mm | - | - | - |
| 1777979494 | 9.44° C | 78% | 1013.5 hPa | 0 mm | - | - | - |
| 1777978893 | 9.44° C | 80% | 1013.5 hPa | 0 mm | - | - | - |
| 1777978294 | 10° C | 74% | 1013.6 hPa | 0 mm | - | - | - |
| 1777977694 | 10.56° C | 74% | 1013.3 hPa | 0 mm | - | - | - |
| 1777977094 | 10.56° C | 73% | 1013.3 hPa | 0 mm | - | - | - |
| 1777976493 | 10.56° C | 72% | 1013.2 hPa | 0 mm | - | - | - |
| 1777975894 | 10.56° C | 73% | 1013.1 hPa | 0 mm | - | - | - |
| 1777975294 | 10.56° C | 72% | 1013 hPa | 0 mm | - | - | - |
| 1777974694 | 11.11° C | 72% | 1012.8 hPa | 0 mm | - | - | - |
| 1777974093 | 11.11° C | 72% | 1012.7 hPa | 0 mm | - | - | - |
* Rain latest hour (hover to see other rain measurements)
** Current wind speed in m/s (hover to see current wind gust speed)